Lamotte, Illinois
Current Conditions -  °F | °C
As of 3:35 AM on Thursday 27 Nov 2014 (Local Time) from KRSV Reporting Station
Overcast Overcast  
Wind Chill: 22°   Ceiling: 1900
Heat Index: 29°   Visibility: 10mi
Dew Point: 25°   Wind: 7mph
Humidity: 84%   Direction: 330°NNW
Pressure: 30.26"   Gusts: NA
Location:  39.0088°N, 87.6216°W
Report Text: KRSV 270935Z AUTO 33006KT 10SM OVC019 M02/M04 A3026 RMK AO2 T10171040
Loading
Personal Weather Stations






























Interactive Weather Map New forecast layout! Learn more

10-Day Weather Forecast

Advertisements
Track Severe Weather on mobile